LUN weather

Kenneth Kaunda International Airport Lusaka
Lusaka, Lusaka Province, Zambia

Public forecast

Using degrees Celsius for public forecast. Weather courtesy of forecast.io.

METAR (pilot weather report)

Retrieved 2019/08/26 06:00 UTC (47 minutes ago):

FLKK 260600Z 11006KT CAVOK 17/13 Q1026

TAF (pilot weather forecast)

Retrieved 2019/08/26 06:00 UTC (47 minutes ago):

TAF FLKK 260400Z 2606/2712 10010KT 9000 NSC BECMG 2613/2615 14007KT NSC FM261800 VRB03KT CAVOK BECMG 2706/2708 09010KT 8000 NSC